Time;durP1;ratioP1;P1;durP2;ratioP2;P2;SDS_P1;SDS_P2;PMS_P1;PMS_P2;Temp;Humidity;BMP_temperature;BMP_pressure;BME280_temperature;BME280_humidity;BME280_pressure;Samples;Min_cycle;Max_cycle;Signal;HPM_P1;HPM_P2
2022/12/08 00:02:43;;;;;;;5.17;0.50;;;16.30;59.10;;;;;;10492470;28;20512;-32
2022/12/08 00:13:04;;;;;;;1.80;0.65;;;17.30;57.40;;;;;;10489167;28;20048;-33
2022/12/08 00:18:07;;;;;;;1.20;0.50;;;17.40;56.70;;;;;;10473172;28;20079;-34
2022/12/08 00:23:09;;;;;;;2.35;0.43;;;17.40;56.80;;;;;;10485891;28;20045;-36
2022/12/08 00:28:11;;;;;;;3.10;0.73;;;15.30;63.00;;;;;;10504441;28;20121;-35
2022/12/08 00:33:15;;;;;;;2.33;0.83;;;16.10;60.40;;;;;;10481044;28;20098;-31
2022/12/08 00:38:16;;;;;;;0.52;0.45;;;12.50;75.40;;;;;;10495773;28;20055;-32
2022/12/08 00:43:18;;;;;;;5.63;0.55;;;14.90;59.50;;;;;;10471878;28;20086;-36
2022/12/08 00:48:21;;;;;;;2.80;0.43;;;15.90;63.10;;;;;;10491330;28;20052;-32
2022/12/08 00:53:23;;;;;;;10.38;0.80;;;15.30;62.80;;;;;;10478601;28;20094;-32
2022/12/08 00:58:25;;;;;;;3.72;0.50;;;11.40;73.80;;;;;;10472566;28;20076;-31
2022/12/08 01:03:28;;;;;;;4.03;0.50;;;10.10;90.30;;;;;;10493170;28;20062;-32
2022/12/08 01:08:31;;;;;;;3.10;0.63;;;9.50;77.30;;;;;;10509708;28;20039;-34
2022/12/08 01:13:33;;;;;;;6.80;0.60;;;11.00;91.00;;;;;;10494936;28;20045;-32
2022/12/08 01:18:36;;;;;;;2.25;1.10;;;11.10;89.20;;;;;;10486692;28;20555;-33
2022/12/08 01:23:39;;;;;;;1.80;0.77;;;11.30;69.80;;;;;;10501638;28;20044;-35
2022/12/08 01:28:42;;;;;;;3.27;0.50;;;12.10;83.50;;;;;;10490074;28;20044;-31
2022/12/08 01:33:46;;;;;;;0.73;0.47;;;12.30;79.10;;;;;;10473981;28;20199;-31
2022/12/08 01:38:48;;;;;;;4.40;0.90;;;11.90;90.80;;;;;;10504734;28;20143;-30
2022/12/08 01:43:59;;;;;;;2.70;0.33;;;11.00;75.00;;;;;;10506310;28;20436;-38
2022/12/08 01:49:07;;;;;;;2.72;0.50;;;11.60;84.50;;;;;;10478202;28;20083;-34
2022/12/08 01:54:09;;;;;;;1.80;0.40;;;11.90;88.50;;;;;;10479358;28;20036;-36
2022/12/08 01:59:12;;;;;;;9.38;0.80;;;13.20;80.10;;;;;;10502888;28;20098;-32
2022/12/08 02:04:15;;;;;;;5.47;1.10;;;9.60;92.90;;;;;;10500686;28;20158;-32
2022/12/08 02:09:18;;;;;;;3.63;0.77;;;9.00;94.30;;;;;;10503130;28;20102;-31
2022/12/08 02:14:20;;;;;;;;;;;10.40;91.90;;;;;;10502299;28;20052;-29
2022/12/08 02:19:58;;;;;;;4.40;0.43;;;9.10;88.10;;;;;;10489959;28;19924;-34
2022/12/08 02:25:08;;;;;;;0.57;0.40;;;9.50;90.40;;;;;;10485958;28;20102;-33
2022/12/08 02:30:26;;;;;;;2.53;0.75;;;11.60;90.70;;;;;;10484429;28;20040;-33
2022/12/08 02:35:36;;;;;;;0.80;0.20;;;13.70;69.50;;;;;;10498599;28;20048;-32
2022/12/08 02:40:46;;;;;;;2.97;0.55;;;14.20;70.10;;;;;;10485510;28;20139;-35
2022/12/08 02:45:50;;;;;;;3.17;0.60;;;12.80;73.20;;;;;;10482807;28;20546;-33
2022/12/08 02:50:53;;;;;;;1.55;0.45;;;9.60;88.20;;;;;;10482191;28;20560;-33
2022/12/08 02:56:08;;;;;;;5.15;0.82;;;9.90;90.90;;;;;;10466586;28;20074;-32
2022/12/08 03:01:22;;;;;;;4.57;0.90;;;9.30;91.60;;;;;;10482993;28;20045;-33
2022/12/08 03:06:32;;;;;;;1.85;0.80;;;9.10;94.00;;;;;;10495714;28;20044;-33
2022/12/08 03:11:38;;;;;;;6.18;0.80;;;8.10;95.30;;;;;;10484217;28;20592;-30
2022/12/08 03:16:43;;;;;;;13.85;1.00;;;9.20;91.50;;;;;;10508234;28;20053;-32
2022/12/08 03:21:49;;;;;;;5.20;0.82;;;7.90;95.00;;;;;;10501156;28;20109;-34
2022/12/08 03:26:57;;;;;;;8.23;0.93;;;8.40;97.00;;;;;;10505529;28;20179;-32
2022/12/08 03:32:06;;;;;;;1.75;0.68;;;8.40;98.30;;;;;;10510064;28;20129;-31
2022/12/08 03:37:10;;;;;;;3.50;0.82;;;10.90;91.50;;;;;;10510773;28;20048;-35
2022/12/08 03:42:11;;;;;;;2.72;1.20;;;9.70;93.00;;;;;;10518365;28;20475;-32
2022/12/08 03:47:13;;;;;;;0.50;0.38;;;8.20;93.00;;;;;;10476013;28;20550;-31
2022/12/08 03:52:17;;;;;;;0.50;0.43;;;7.30;97.60;;;;;;10478666;28;20045;-30
2022/12/08 03:57:19;;;;;;;10.88;1.23;;;7.10;93.90;;;;;;10494217;28;20153;-35
2022/12/08 04:02:21;;;;;;;3.78;0.57;;;6.30;97.80;;;;;;10484083;28;20041;-32
2022/12/08 04:07:24;;;;;;;3.20;0.47;;;7.70;91.90;;;;;;10491294;28;20543;-31
2022/12/08 04:12:26;;;;;;;2.05;0.50;;;10.60;89.80;;;;;;10490589;28;20067;-34
2022/12/08 04:17:28;;;;;;;4.68;0.60;;;8.60;96.40;;;;;;10483115;28;20534;-32
2022/12/08 04:22:31;;;;;;;0.73;0.40;;;7.50;98.70;;;;;;10501153;28;20136;-35
2022/12/08 04:27:33;;;;;;;1.45;0.60;;;10.70;90.80;;;;;;10510039;28;20744;-33
2022/12/08 04:32:35;;;;;;;2.77;0.60;;;10.10;94.00;;;;;;10492574;28;20129;-31
2022/12/08 04:37:38;;;;;;;4.38;0.47;;;10.20;83.90;;;;;;10501589;28;20474;-32
2022/12/08 04:42:40;;;;;;;2.00;0.60;;;9.10;96.60;;;;;;10486417;28;20048;-32
2022/12/08 04:47:43;;;;;;;9.50;0.90;;;9.90;88.30;;;;;;10489081;28;20131;-33
2022/12/08 04:52:46;;;;;;;2.88;0.60;;;9.00;93.60;;;;;;10476246;28;20048;-35
2022/12/08 04:57:48;;;;;;;0.98;0.65;;;9.10;88.50;;;;;;10473413;28;20080;-33
2022/12/08 05:02:49;;;;;;;0.32;0.32;;;9.80;90.70;;;;;;10477379;28;20485;-33
2022/12/08 05:07:53;;;;;;;1.35;0.35;;;9.60;93.90;;;;;;10477415;28;20068;-32
2022/12/08 05:12:55;;;;;;;2.97;0.55;;;10.40;76.60;;;;;;10484378;28;20561;-34
2022/12/08 05:17:56;;;;;;;3.42;0.30;;;10.10;87.60;;;;;;10470845;28;20463;-32
2022/12/08 05:23:00;;;;;;;2.67;0.30;;;8.60;95.10;;;;;;10473941;28;20068;-32
2022/12/08 05:28:01;;;;;;;1.13;0.20;;;7.60;94.60;;;;;;10487356;28;20045;-31
2022/12/08 05:33:03;;;;;;;2.67;0.43;;;8.70;95.60;;;;;;10479912;28;20056;-33
2022/12/08 05:38:07;;;;;;;4.85;0.90;;;8.90;92.10;;;;;;10483578;28;20210;-34
2022/12/08 05:43:09;;;;;;;3.22;0.52;;;9.00;90.20;;;;;;10478532;28;20134;-34
2022/12/08 05:48:11;;;;;;;3.67;0.50;;;10.70;86.70;;;;;;10487362;28;20513;-32
2022/12/08 05:53:14;;;;;;;3.03;0.60;;;10.40;90.20;;;;;;10467366;28;20134;-33
2022/12/08 05:58:18;;;;;;;6.80;0.60;;;10.00;89.70;;;;;;10467046;28;20143;-34
2022/12/08 06:03:19;;;;;;;2.78;0.70;;;10.10;93.30;;;;;;10488481;28;20045;-34
2022/12/08 06:08:23;;;;;;;0.57;0.57;;;12.90;67.10;;;;;;10502814;28;20095;-34
2022/12/08 06:13:24;;;;;;;1.95;0.30;;;14.00;69.20;;;;;;10489536;28;20050;-36
2022/12/08 06:18:26;;;;;;;1.05;0.28;;;13.10;67.40;;;;;;10461116;28;20551;-33
2022/12/08 06:23:29;;;;;;;0.87;0.60;;;15.10;62.10;;;;;;10461050;28;20072;-34
2022/12/08 06:28:32;;;;;;;0.85;0.20;;;15.10;61.90;;;;;;10464224;28;20115;-33
2022/12/08 06:33:33;;;;;;;0.30;0.30;;;12.20;60.60;;;;;;10456192;28;20106;-32
2022/12/08 06:38:37;;;;;;;0.93;0.33;;;15.20;61.60;;;;;;10463900;28;20580;-33
2022/12/08 06:43:39;;;;;;;1.63;0.60;;;15.00;62.10;;;;;;10454168;28;20068;-35
2022/12/08 06:48:41;;;;;;;0.68;0.40;;;16.00;59.00;;;;;;10471336;28;20521;-34
2022/12/08 06:53:45;;;;;;;7.23;2.77;;;16.40;57.30;;;;;;10454506;28;20065;-33
2022/12/08 06:58:47;;;;;;;2.70;1.08;;;16.60;56.80;;;;;;10471734;28;20508;-32
2022/12/08 07:15:30;;;;;;;3.67;1.15;;;16.90;55.40;;;;;;10497390;27;20122;-36
2022/12/08 07:20:32;;;;;;;4.28;1.17;;;16.70;55.60;;;;;;10460126;28;20725;-35
2022/12/08 07:25:34;;;;;;;2.27;0.93;;;16.60;56.40;;;;;;10461775;28;20596;-32
2022/12/08 07:30:37;;;;;;;3.03;1.57;;;16.60;56.90;;;;;;10456081;28;20065;-31
2022/12/08 07:35:39;;;;;;;2.10;1.15;;;17.00;55.70;;;;;;10456414;28;20473;-32
2022/12/08 07:40:41;;;;;;;1.40;0.70;;;16.60;56.20;;;;;;10474531;28;20460;-31
2022/12/08 07:45:44;;;;;;;1.10;0.55;;;16.90;55.70;;;;;;10481628;28;20040;-33
2022/12/08 07:50:47;;;;;;;1.65;0.50;;;17.00;55.50;;;;;;10477797;28;20118;-32
2022/12/08 07:55:49;;;;;;;1.08;0.30;;;17.00;55.30;;;;;;10478481;28;20053;-32
2022/12/08 08:00:52;;;;;;;1.17;0.70;;;17.10;55.10;;;;;;10469293;28;20099;-31
2022/12/08 08:05:54;;;;;;;1.27;0.60;;;17.10;55.10;;;;;;10486620;28;20048;-32
2022/12/08 08:10:56;;;;;;;1.30;0.77;;;16.90;55.30;;;;;;10474905;28;20102;-34
2022/12/08 08:16:04;;;;;;;2.40;0.50;;;17.10;55.10;;;;;;10478857;28;20045;-33
2022/12/08 08:21:07;;;;;;;1.20;0.60;;;17.10;55.10;;;;;;10479423;28;20102;-31
2022/12/08 08:26:09;;;;;;;2.72;1.25;;;17.20;55.20;;;;;;10467265;28;20099;-33
2022/12/08 08:31:12;;;;;;;3.88;2.08;;;17.20;55.20;;;;;;10454128;28;20064;-32
2022/12/08 08:36:14;;;;;;;1.45;1.10;;;15.20;61.10;;;;;;10442302;28;20672;-35
2022/12/08 08:41:16;;;;;;;2.88;0.95;;;16.90;55.90;;;;;;10464832;28;20401;-32
2022/12/08 08:46:19;;;;;;;4.22;1.50;;;17.10;55.50;;;;;;10439542;28;20084;-32
2022/12/08 08:51:21;;;;;;;6.07;1.85;;;17.00;55.60;;;;;;10424450;28;20715;-31
2022/12/08 08:56:23;;;;;;;2.20;1.20;;;17.10;55.30;;;;;;10440472;28;20068;-33
2022/12/08 09:01:28;;;;;;;4.13;1.27;;;17.10;55.30;;;;;;10445912;28;20519;-30
2022/12/08 09:06:30;;;;;;;2.75;0.60;;;17.10;55.40;;;;;;10436375;28;20484;-28
2022/12/08 09:11:32;;;;;;;1.52;0.60;;;17.50;56.90;;;;;;10434246;28;20057;-33
2022/12/08 09:16:35;;;;;;;3.15;0.60;;;17.40;55.80;;;;;;10445443;28;20437;-37
2022/12/08 09:21:37;;;;;;;1.42;0.38;;;17.20;56.00;;;;;;10443367;28;20076;-37
2022/12/08 09:26:39;;;;;;;1.60;0.30;;;17.20;56.00;;;;;;10443037;28;20132;-31
2022/12/08 09:31:42;;;;;;;1.03;0.30;;;17.30;55.80;;;;;;10447741;28;20053;-31
2022/12/08 09:36:44;;;;;;;3.17;0.40;;;17.20;56.10;;;;;;10441247;28;20138;-31
2022/12/08 09:41:49;;;;;;;2.03;0.60;;;17.20;56.20;;;;;;10443409;28;20056;-35
2022/12/08 09:46:54;;;;;;;1.02;0.25;;;17.20;56.30;;;;;;10442528;28;20106;-39
2022/12/08 09:51:57;;;;;;;0.75;0.40;;;17.20;56.50;;;;;;10434404;28;20053;-31
2022/12/08 09:57:03;;;;;;;2.63;0.50;;;17.10;56.50;;;;;;10445972;28;20444;-35
2022/12/08 10:02:19;;;;;;;0.40;0.40;;;17.10;56.50;;;;;;10443996;28;20052;-31
2022/12/08 10:07:29;;;;;;;0.22;0.20;;;17.10;56.70;;;;;;10426953;28;20061;-31
2022/12/08 10:12:37;;;;;;;0.38;0.22;;;17.10;56.50;;;;;;10452289;28;20110;-31
2022/12/08 10:17:47;;;;;;;1.35;0.32;;;17.10;56.50;;;;;;10477603;28;20049;-32
2022/12/08 10:22:53;;;;;;;0.52;0.30;;;17.10;56.60;;;;;;10464751;28;20045;-32
2022/12/08 10:28:00;;;;;;;1.52;0.30;;;17.20;56.50;;;;;;10435108;28;20037;-36
2022/12/08 10:33:04;;;;;;;0.25;0.15;;;17.20;56.30;;;;;;10441962;28;20172;-32
2022/12/08 10:38:06;;;;;;;0.73;0.40;;;17.20;56.40;;;;;;10440327;28;20104;-31
2022/12/08 10:43:14;;;;;;;0.20;0.10;;;17.20;56.50;;;;;;10439418;28;20126;-30
2022/12/08 10:48:20;;;;;;;0.55;0.30;;;17.20;56.30;;;;;;10444266;28;20094;-31
2022/12/08 10:53:24;;;;;;;0.65;0.30;;;17.30;56.10;;;;;;10444649;28;20046;-32
2022/12/08 10:58:32;;;;;;;5.57;0.60;;;17.20;56.30;;;;;;10450017;28;20103;-33
2022/12/08 11:03:39;;;;;;;2.22;0.60;;;17.30;56.40;;;;;;10445251;28;20131;-32
2022/12/08 11:08:51;;;;;;;0.65;0.40;;;17.20;56.40;;;;;;10434029;28;20472;-32
2022/12/08 11:13:52;;;;;;;1.92;0.90;;;17.20;56.40;;;;;;10440552;28;20110;-31
2022/12/08 11:19:05;;;;;;;3.33;0.80;;;17.20;57.00;;;;;;10441301;28;20049;-31
2022/12/08 11:24:28;;;;;;;2.83;0.60;;;17.20;56.40;;;;;;10458407;28;20059;-31
2022/12/08 11:29:33;;;;;;;1.55;0.85;;;16.90;56.90;;;;;;10448101;28;20123;-32
2022/12/08 11:34:40;;;;;;;2.72;0.90;;;16.60;57.70;;;;;;10465694;28;20254;-33
2022/12/08 11:39:46;;;;;;;6.65;2.40;;;16.90;56.50;;;;;;10441218;28;20044;-36
2022/12/08 11:44:55;;;;;;;7.05;3.65;;;16.90;56.20;;;;;;10442617;28;20090;-32
2022/12/08 11:50:04;;;;;;;4.20;2.30;;;16.70;56.50;;;;;;10432182;28;20071;-32
2022/12/08 11:55:26;;;;;;;1.58;1.02;;;16.90;56.30;;;;;;10436858;28;20057;-32
2022/12/08 12:00:27;;;;;;;3.28;1.40;;;17.10;55.60;;;;;;10446733;28;20088;-33
2022/12/08 12:05:39;;;;;;;8.07;1.30;;;17.20;55.50;;;;;;10449638;28;20068;-32
2022/12/08 12:10:52;;;;;;;10.30;2.30;;;17.10;55.50;;;;;;10446217;28;20504;-32
2022/12/08 12:16:45;;;;;;;3.80;1.42;;;16.40;57.80;;;;;;10454494;28;20482;-34
2022/12/08 12:21:50;;;;;;;;;;;16.70;57.10;;;;;;10353065;28;20140;-38
2022/12/08 12:26:58;;;;;;;7.20;1.80;;;17.00;56.50;;;;;;10429999;28;19968;-32
2022/12/08 12:32:04;;;;;;;1.55;1.17;;;17.10;56.30;;;;;;10446309;28;20060;-37
2022/12/08 12:37:11;;;;;;;2.83;1.42;;;17.20;56.20;;;;;;10430827;28;20047;-36
2022/12/08 12:42:36;;;;;;;3.42;0.85;;;17.30;55.90;;;;;;10434589;28;20046;-28
2022/12/08 12:47:47;;;;;;;1.70;1.08;;;17.00;56.20;;;;;;10419501;28;20343;-33
2022/12/08 12:52:50;;;;;;;1.13;0.43;;;17.00;56.30;;;;;;10434793;28;20095;-33
2022/12/08 12:57:54;;;;;;;2.47;0.60;;;16.60;56.20;;;;;;10417244;28;20049;-31
2022/12/08 13:02:57;;;;;;;1.52;0.60;;;13.80;62.40;;;;;;10427246;28;20131;-30
2022/12/08 13:08:03;;;;;;;2.08;0.82;;;14.70;63.50;;;;;;10434942;28;20086;-29
2022/12/08 13:13:17;;;;;;;2.17;0.40;;;15.60;58.50;;;;;;10455245;28;20090;-33
2022/12/08 13:18:21;;;;;;;5.75;0.82;;;12.50;67.10;;;;;;10440756;28;20511;-32
2022/12/08 13:23:43;;;;;;;2.92;1.13;;;14.60;64.20;;;;;;10456616;28;20105;-32
2022/12/08 13:29:18;;;;;;;4.03;0.90;;;15.90;59.70;;;;;;10444683;28;20474;-33
2022/12/08 13:34:25;;;;;;;2.83;1.17;;;16.30;58.30;;;;;;10435859;28;20474;-33
2022/12/08 13:39:35;;;;;;;2.75;0.70;;;16.30;57.70;;;;;;10447903;28;20087;-32
2022/12/08 13:44:41;;;;;;;0.80;0.50;;;16.50;57.10;;;;;;10449216;28;20072;-34
2022/12/08 13:49:50;;;;;;;0.90;0.38;;;16.60;56.90;;;;;;10447636;28;20076;-39
2022/12/08 13:54:53;;;;;;;1.63;0.60;;;16.50;56.40;;;;;;10430432;28;20934;-35
2022/12/08 14:00:00;;;;;;;2.10;0.70;;;15.40;60.00;;;;;;10432006;28;20589;-32
2022/12/08 14:05:03;;;;;;;1.58;0.50;;;16.10;59.30;;;;;;10451307;28;20107;-32
2022/12/08 14:10:09;;;;;;;3.50;0.63;;;17.00;56.60;;;;;;10442780;28;20456;-39
2022/12/08 14:15:14;;;;;;;2.25;0.77;;;16.50;58.00;;;;;;10442828;28;20053;-32
2022/12/08 14:20:23;;;;;;;1.52;0.77;;;15.10;61.10;;;;;;10440995;28;20085;-32
2022/12/08 14:25:28;;;;;;;1.67;1.20;;;15.70;62.40;;;;;;10430431;28;20045;-31
2022/12/08 14:30:32;;;;;;;0.77;0.50;;;15.30;64.20;;;;;;10427542;28;20049;-32
2022/12/08 14:35:36;;;;;;;1.73;0.93;;;15.60;60.70;;;;;;10419447;28;20049;-29
2022/12/08 14:40:41;;;;;;;2.63;0.68;;;15.60;62.80;;;;;;10433972;28;20132;-32
2022/12/08 14:45:47;;;;;;;2.35;0.80;;;15.20;53.10;;;;;;10452786;28;20049;-31
2022/12/08 14:51:03;;;;;;;1.52;0.57;;;16.60;57.10;;;;;;10454421;28;20080;-29
2022/12/08 14:56:18;;;;;;;1.85;0.55;;;15.90;60.00;;;;;;10471309;28;20057;-33
2022/12/08 15:01:23;;;;;;;2.05;0.57;;;16.50;59.70;;;;;;10447670;28;20041;-31
2022/12/08 15:06:25;;;;;;;1.05;0.70;;;13.30;77.50;;;;;;10454461;28;20055;-32
2022/12/08 15:11:32;;;;;;;6.17;1.03;;;13.40;69.00;;;;;;10448133;28;20057;-34
2022/12/08 15:16:41;;;;;;;6.72;0.93;;;15.40;66.80;;;;;;10433775;28;20045;-38
2022/12/08 15:21:43;;;;;;;2.38;0.68;;;16.40;62.20;;;;;;10455973;28;20049;-38
2022/12/08 15:26:49;;;;;;;0.88;0.45;;;17.10;58.60;;;;;;10443138;28;20132;-32
2022/12/08 15:31:53;;;;;;;1.75;0.70;;;17.30;57.70;;;;;;10427861;28;20137;-32
2022/12/08 15:36:55;;;;;;;4.78;0.60;;;17.50;57.10;;;;;;10445117;28;20405;-32
2022/12/08 15:41:59;;;;;;;2.20;1.10;;;17.60;56.70;;;;;;10474718;28;20057;-32
2022/12/08 15:47:01;;;;;;;1.10;0.63;;;17.70;56.30;;;;;;10446485;28;20057;-34
2022/12/08 15:52:03;;;;;;;2.47;0.80;;;17.80;56.50;;;;;;10433680;28;20056;-32
2022/12/08 15:57:16;;;;;;;3.17;0.73;;;17.80;55.70;;;;;;10457695;28;20064;-30
2022/12/08 16:02:18;;;;;;;0.68;0.32;;;13.70;62.00;;;;;;10441781;28;20056;-34
2022/12/08 16:07:25;;;;;;;2.63;0.88;;;13.00;80.00;;;;;;10456628;28;20045;-35
2022/12/08 16:17:48;;;;;;;0.73;0.60;;;17.10;57.60;;;;;;10441264;28;20053;-32
2022/12/08 16:22:51;;;;;;;2.70;0.45;;;17.50;56.70;;;;;;10437054;28;20042;-33
2022/12/08 16:27:55;;;;;;;4.20;0.80;;;17.70;56.10;;;;;;10434232;28;20485;-32
2022/12/08 16:32:57;;;;;;;1.95;1.17;;;17.40;56.90;;;;;;10431874;28;20052;-32
2022/12/08 16:37:59;;;;;;;0.43;0.33;;;17.80;55.80;;;;;;10445528;28;20060;-32
2022/12/08 16:43:02;;;;;;;0.90;0.50;;;18.00;55.30;;;;;;10446961;28;20452;-32
2022/12/08 16:48:05;;;;;;;4.03;1.85;;;18.10;54.90;;;;;;10441402;28;20049;-32
2022/12/08 16:53:09;;;;;;;2.33;0.75;;;18.00;55.00;;;;;;10447233;28;20390;-36
2022/12/08 16:58:13;;;;;;;0.65;0.35;;;18.00;55.00;;;;;;10447563;28;20045;-31
2022/12/08 17:03:16;;;;;;;2.80;0.55;;;18.00;55.10;;;;;;10451104;28;20123;-35
2022/12/08 17:08:18;;;;;;;0.60;0.40;;;18.10;55.50;;;;;;10449677;28;20055;-31
2022/12/08 17:13:21;;;;;;;1.80;0.80;;;17.90;55.40;;;;;;10449853;28;20056;-34
2022/12/08 17:18:23;;;;;;;8.25;2.03;;;17.60;56.10;;;;;;10461229;28;20112;-31
2022/12/08 17:23:25;;;;;;;10.30;3.53;;;17.30;55.90;;;;;;10458350;28;20041;-33
2022/12/08 17:28:28;;;;;;;4.03;0.77;;;17.20;57.30;;;;;;10435734;28;20406;-30
2022/12/08 17:33:30;;;;;;;4.18;0.50;;;15.80;62.50;;;;;;10452396;28;20053;-32
2022/12/08 17:38:32;;;;;;;1.30;0.60;;;12.50;55.20;;;;;;10448202;28;20078;-31
2022/12/08 17:43:35;;;;;;;6.30;1.20;;;15.20;63.40;;;;;;10459683;28;20102;-36
2022/12/08 17:48:37;;;;;;;1.42;0.82;;;16.30;62.30;;;;;;10437336;28;20036;-38
2022/12/08 17:53:40;;;;;;;5.63;2.27;;;17.30;58.10;;;;;;10444866;28;20052;-38
2022/12/08 17:58:44;;;;;;;2.30;0.95;;;17.10;58.40;;;;;;10437533;28;20052;-37
2022/12/08 18:03:45;;;;;;;1.13;0.73;;;16.90;58.90;;;;;;10442498;28;20103;-32
2022/12/08 18:08:47;;;;;;;3.53;1.43;;;15.10;64.30;;;;;;10445364;28;20111;-30
2022/12/08 18:13:51;;;;;;;4.20;1.15;;;14.40;62.70;;;;;;10445630;28;20088;-31
2022/12/08 18:18:54;;;;;;;4.88;1.25;;;15.70;60.30;;;;;;10445976;28;20572;-35
2022/12/08 18:23:56;;;;;;;;;;;12.30;68.80;;;;;;10441384;28;20945;-32
2022/12/08 18:29:00;;;;;;;15.30;2.92;;;14.60;70.00;;;;;;10434376;28;19970;-32
2022/12/08 18:34:02;;;;;;;12.68;3.30;;;14.40;67.50;;;;;;10463523;28;20053;-32
2022/12/08 18:39:04;;;;;;;6.28;1.80;;;12.00;84.00;;;;;;10437491;28;20053;-33
2022/12/08 18:44:07;;;;;;;9.63;2.27;;;13.20;77.00;;;;;;10421104;28;20209;-33
2022/12/08 18:49:11;;;;;;;7.65;3.55;;;13.10;77.70;;;;;;10448180;28;20568;-34
2022/12/08 18:54:13;;;;;;;10.20;4.07;;;14.90;68.10;;;;;;10441775;28;20130;-34
2022/12/08 18:59:19;;;;;;;9.23;3.60;;;14.70;71.00;;;;;;10440656;28;20110;-31
2022/12/08 19:04:20;;;;;;;12.30;5.15;;;14.30;71.00;;;;;;10441601;28;20727;-31
2022/12/08 19:09:23;;;;;;;7.50;3.10;;;15.90;63.00;;;;;;10444125;28;20163;-33
2022/12/08 19:14:29;;;;;;;8.13;3.95;;;15.20;64.60;;;;;;10442358;28;20053;-34
2022/12/08 19:19:30;;;;;;;7.60;1.73;;;16.70;60.60;;;;;;10445692;28;20045;-32
2022/12/08 19:24:35;;;;;;;5.43;1.30;;;17.30;58.80;;;;;;10427053;28;20093;-32
2022/12/08 19:29:38;;;;;;;5.40;1.77;;;17.20;59.10;;;;;;10431816;28;20410;-35
2022/12/08 19:34:40;;;;;;;3.42;1.25;;;17.20;58.70;;;;;;10431093;28;20468;-32
2022/12/08 19:45:06;;;;;;;2.17;0.90;;;17.70;58.70;;;;;;10428296;28;20391;-33
2022/12/08 19:55:31;;;;;;;6.13;1.08;;;17.80;58.00;;;;;;10434569;28;20513;-33
2022/12/08 20:00:36;;;;;;;4.20;0.80;;;17.90;57.80;;;;;;10438917;28;20052;-33
2022/12/08 20:05:41;;;;;;;2.40;0.90;;;18.00;57.70;;;;;;10436003;28;20094;-32
2022/12/08 20:10:44;;;;;;;4.97;1.50;;;18.00;57.60;;;;;;10439110;28;20155;-29
2022/12/08 20:15:48;;;;;;;7.53;0.73;;;17.90;57.50;;;;;;10433469;28;20053;-36
2022/12/08 20:20:50;;;;;;;4.05;0.77;;;18.00;57.40;;;;;;10451065;28;20080;-35
2022/12/08 20:25:52;;;;;;;2.53;1.00;;;18.00;57.90;;;;;;10436151;28;20053;-33
2022/12/08 20:30:55;;;;;;;7.72;0.88;;;18.00;57.10;;;;;;10444518;28;20045;-30
2022/12/08 20:36:02;;;;;;;3.40;0.95;;;18.00;57.00;;;;;;10440602;28;20045;-37
2022/12/08 20:41:08;;;;;;;7.88;0.90;;;18.00;56.90;;;;;;10455949;28;20463;-37
2022/12/08 20:46:14;;;;;;;3.22;0.88;;;18.00;56.90;;;;;;10438520;28;20049;-33
2022/12/08 20:51:17;;;;;;;8.32;1.17;;;18.00;56.60;;;;;;10429418;28;20126;-32
2022/12/08 20:56:21;;;;;;;5.78;1.17;;;18.00;56.60;;;;;;10433309;28;20053;-34
2022/12/08 21:01:25;;;;;;;2.60;1.17;;;18.00;56.60;;;;;;10441128;28;20128;-31
2022/12/08 21:06:27;;;;;;;7.30;1.35;;;18.00;56.60;;;;;;10436661;28;20482;-32
2022/12/08 21:11:30;;;;;;;8.75;1.23;;;18.00;56.30;;;;;;10440447;28;20106;-33
2022/12/08 21:16:33;;;;;;;7.43;1.45;;;18.00;56.40;;;;;;10448689;28;20094;-33
2022/12/08 21:21:35;;;;;;;4.78;0.95;;;18.00;56.30;;;;;;10450192;28;20128;-33
2022/12/08 21:26:37;;;;;;;8.77;1.05;;;18.00;56.30;;;;;;10440072;28;20632;-38
2022/12/08 21:31:40;;;;;;;4.03;0.90;;;18.00;56.20;;;;;;10430857;28;20076;-32
2022/12/08 21:36:42;;;;;;;1.52;0.77;;;18.00;56.30;;;;;;10430029;28;20045;-32
2022/12/08 21:47:05;;;;;;;6.20;1.58;;;17.90;56.40;;;;;;10450182;28;20041;-33
2022/12/08 21:52:07;;;;;;;3.83;1.00;;;17.80;56.50;;;;;;10449393;28;20052;-34
2022/12/08 21:57:09;;;;;;;2.90;1.15;;;17.80;56.50;;;;;;10435111;28;20068;-31
2022/12/08 22:02:14;;;;;;;1.70;0.77;;;17.80;56.60;;;;;;10455266;28;20053;-29
2022/12/08 22:07:17;;;;;;;5.95;1.63;;;17.70;56.60;;;;;;10451277;28;20596;-32
2022/12/08 22:12:18;;;;;;;3.42;1.13;;;17.70;56.60;;;;;;10446404;28;20044;-33
2022/12/08 22:17:22;;;;;;;4.35;1.02;;;17.70;56.60;;;;;;10451628;28;20099;-32
2022/12/08 22:22:23;;;;;;;1.90;0.93;;;17.60;56.70;;;;;;10464369;28;20048;-37
2022/12/08 22:27:25;;;;;;;6.10;1.20;;;17.60;56.70;;;;;;10434009;28;20524;-31
2022/12/08 22:32:29;;;;;;;4.67;1.10;;;17.50;56.70;;;;;;10435632;28;20502;-34
2022/12/08 22:37:30;;;;;;;6.18;1.30;;;17.50;56.70;;;;;;10454512;28;21105;-32
2022/12/08 22:42:32;;;;;;;4.83;1.33;;;17.50;56.80;;;;;;10442288;28;20053;-31
2022/12/08 22:47:36;;;;;;;2.50;1.25;;;17.40;57.00;;;;;;10441164;28;20118;-32
2022/12/08 22:52:38;;;;;;;2.88;1.10;;;17.40;56.70;;;;;;10444991;28;20426;-31
2022/12/08 22:57:40;;;;;;;2.85;1.63;;;17.40;56.60;;;;;;10428441;28;20455;-36
2022/12/08 23:02:43;;;;;;;2.97;1.33;;;17.40;56.70;;;;;;10436653;28;20094;-34
2022/12/08 23:07:45;;;;;;;5.57;1.25;;;17.30;56.60;;;;;;10432577;28;20835;-37
2022/12/08 23:12:46;;;;;;;4.67;1.47;;;17.30;56.50;;;;;;10437835;28;20057;-38
2022/12/08 23:17:50;;;;;;;4.77;1.30;;;17.30;56.50;;;;;;10435432;28;20061;-36
2022/12/08 23:22:52;;;;;;;2.95;1.10;;;17.30;56.30;;;;;;10451667;28;20052;-38
2022/12/08 23:27:54;;;;;;;4.17;1.60;;;17.30;56.30;;;;;;10449394;28;20063;-27
2022/12/08 23:32:57;;;;;;;5.13;1.50;;;17.30;56.20;;;;;;10439655;28;20494;-33
2022/12/08 23:37:59;;;;;;;5.95;1.60;;;17.30;56.20;;;;;;10441346;28;20522;-31
2022/12/08 23:43:01;;;;;;;4.07;1.30;;;17.20;56.30;;;;;;10446661;28;20684;-33
2022/12/08 23:48:05;;;;;;;3.70;1.73;;;17.20;56.30;;;;;;10435289;28;20049;-33
2022/12/08 23:53:06;;;;;;;5.20;2.65;;;17.20;56.10;;;;;;10440835;28;20060;-32
2022/12/08 23:58:08;;;;;;;2.93;1.53;;;17.30;56.20;;;;;;10449781;28;20051;-32
